createdAt,value
2016-11-16T00:00:59.988Z,0
2016-11-16T00:02:11.233Z,0
2016-11-16T00:03:22.263Z,0
2016-11-16T00:04:33.281Z,0
2016-11-16T00:05:44.356Z,0
2016-11-16T00:06:55.423Z,0
2016-11-16T00:08:06.462Z,0
2016-11-16T00:09:17.498Z,0
2016-11-16T00:10:28.545Z,0
2016-11-16T00:11:39.834Z,0
2016-11-16T00:12:50.867Z,0
2016-11-16T00:14:01.907Z,0
2016-11-16T00:15:12.939Z,0
2016-11-16T00:16:24.176Z,0
2016-11-16T00:17:35.254Z,0
2016-11-16T00:18:46.287Z,0
2016-11-16T00:19:57.323Z,0
2016-11-16T00:21:08.357Z,0
2016-11-16T00:22:19.397Z,0
2016-11-16T00:23:30.484Z,0
2016-11-16T00:24:41.523Z,0
2016-11-16T00:25:52.555Z,0
2016-11-16T00:27:03.595Z,0
2016-11-16T00:28:14.632Z,0
2016-11-16T00:29:25.702Z,0
2016-11-16T00:30:36.743Z,0
2016-11-16T00:31:47.981Z,0
2016-11-16T00:32:59.010Z,0
2016-11-16T00:34:10.032Z,0
2016-11-16T00:35:21.109Z,0
2016-11-16T00:36:32.140Z,0
2016-11-16T00:37:43.187Z,0
2016-11-16T00:38:54.427Z,0
2016-11-16T00:40:05.462Z,0
2016-11-16T00:41:16.557Z,0
2016-11-16T00:42:27.590Z,0
2016-11-16T00:43:38.633Z,0
2016-11-16T00:44:49.868Z,0
2016-11-16T00:46:00.911Z,0
2016-11-16T00:47:12.207Z,0
2016-11-16T00:48:23.254Z,0
2016-11-16T00:49:34.277Z,0
2016-11-16T00:50:45.506Z,0
2016-11-16T00:51:56.741Z,0
2016-11-16T00:53:07.825Z,0
2016-11-16T00:54:18.729Z,0
2016-11-16T00:55:29.972Z,0
2016-11-16T00:56:41.002Z,0
2016-11-16T00:57:52.043Z,0
2016-11-16T00:59:03.118Z,0
2016-11-16T01:00:14.137Z,0
2016-11-16T01:01:25.362Z,0
2016-11-16T01:02:36.388Z,0
2016-11-16T01:03:47.415Z,0
2016-11-16T01:04:58.505Z,0
2016-11-16T01:06:09.530Z,0
2016-11-16T01:07:20.553Z,0
2016-11-16T01:08:31.590Z,0
2016-11-16T01:09:42.611Z,0
2016-11-16T01:10:53.693Z,0
2016-11-16T01:12:04.718Z,0
2016-11-16T01:13:15.758Z,0
2016-11-16T01:14:26.792Z,0
2016-11-16T01:15:37.824Z,0
2016-11-16T01:16:49.119Z,0
2016-11-16T01:18:00.357Z,0
2016-11-16T01:19:11.390Z,0
2016-11-16T01:20:22.443Z,0
2016-11-16T01:21:33.509Z,0
2016-11-16T01:22:44.595Z,0
2016-11-16T01:23:55.628Z,0
2016-11-16T01:25:06.668Z,0
2016-11-16T01:26:17.683Z,0
2016-11-16T01:27:28.714Z,0
2016-11-16T01:28:39.786Z,0
2016-11-16T01:29:50.824Z,0
2016-11-16T01:31:02.063Z,0
2016-11-16T01:32:13.096Z,0
2016-11-16T01:33:24.126Z,0
2016-11-16T01:34:35.207Z,0
2016-11-16T01:35:46.251Z,0
2016-11-16T01:36:57.278Z,0
2016-11-16T01:38:08.533Z,0
2016-11-16T01:39:19.577Z,0
2016-11-16T01:40:30.668Z,0
2016-11-16T01:41:41.707Z,0
2016-11-16T01:42:52.766Z,0
2016-11-16T01:44:03.809Z,0
2016-11-16T01:45:14.847Z,0
2016-11-16T01:46:25.922Z,0
2016-11-16T01:47:36.956Z,0
2016-11-16T01:48:47.985Z,0
2016-11-16T01:49:59.004Z,0
2016-11-16T01:51:10.036Z,0
2016-11-16T01:52:21.133Z,0
2016-11-16T01:53:32.165Z,0
2016-11-16T01:54:43.199Z,0
2016-11-16T01:55:54.241Z,0
2016-11-16T01:57:05.285Z,0
2016-11-16T01:58:16.365Z,0
2016-11-16T01:59:27.427Z,0
2016-11-16T02:00:38.464Z,0
2016-11-16T02:01:49.501Z,0
2016-11-16T02:03:00.526Z,0
2016-11-16T02:04:11.599Z,0
2016-11-16T02:05:22.623Z,0
2016-11-16T02:06:33.670Z,0
2016-11-16T02:07:44.700Z,0
2016-11-16T02:08:55.719Z,0
2016-11-16T02:10:06.805Z,0
2016-11-16T02:11:17.837Z,0
2016-11-16T02:12:28.875Z,0
2016-11-16T02:13:40.111Z,0
2016-11-16T02:14:51.160Z,0
2016-11-16T02:16:02.242Z,0
2016-11-16T02:17:13.466Z,0
2016-11-16T02:18:24.507Z,0
2016-11-16T02:19:35.562Z,0
2016-11-16T02:20:46.605Z,0
2016-11-16T02:21:57.678Z,0
2016-11-16T02:23:08.707Z,0
2016-11-16T02:24:19.746Z,0
2016-11-16T02:25:30.783Z,0
2016-11-16T02:26:42.022Z,0
2016-11-16T02:27:53.097Z,0
2016-11-16T02:29:04.336Z,0
2016-11-16T02:30:15.564Z,0
2016-11-16T02:31:26.787Z,0
2016-11-16T02:32:37.837Z,0
2016-11-16T02:33:48.927Z,0
2016-11-16T02:35:00.163Z,0
2016-11-16T02:36:11.192Z,0
2016-11-16T02:37:22.219Z,0
2016-11-16T02:38:33.258Z,0
2016-11-16T02:39:44.535Z,0
2016-11-16T02:40:55.565Z,0
2016-11-16T02:42:06.597Z,0
2016-11-16T02:43:17.640Z,0
2016-11-16T02:44:28.671Z,0
2016-11-16T02:45:39.754Z,0
2016-11-16T02:46:50.787Z,0
2016-11-16T02:48:02.018Z,0
2016-11-16T02:49:13.054Z,0
2016-11-16T02:50:24.074Z,0
2016-11-16T02:51:35.182Z,0
2016-11-16T02:52:46.205Z,0
2016-11-16T02:53:57.434Z,0
2016-11-16T02:55:08.467Z,0
2016-11-16T02:56:19.495Z,0
2016-11-16T02:57:30.573Z,0
2016-11-16T02:58:41.600Z,0
2016-11-16T02:59:52.635Z,0
2016-11-16T03:01:03.667Z,0
2016-11-16T03:02:14.703Z,0
2016-11-16T03:03:26.185Z,0
2016-11-16T03:04:37.400Z,0
2016-11-16T03:05:48.641Z,0
2016-11-16T03:06:59.681Z,0
2016-11-16T03:08:10.714Z,0
2016-11-16T03:09:21.816Z,0
2016-11-16T03:10:32.836Z,0
2016-11-16T03:11:43.873Z,0
2016-11-16T03:12:54.928Z,0
2016-11-16T03:14:05.962Z,0
2016-11-16T03:15:17.266Z,0
2016-11-16T03:16:28.306Z,0
2016-11-16T03:17:39.334Z,0
2016-11-16T03:18:50.362Z,0
2016-11-16T03:20:01.614Z,0
2016-11-16T03:21:12.705Z,0
2016-11-16T03:22:23.741Z,0
2016-11-16T03:23:34.971Z,0
2016-11-16T03:24:45.993Z,0
2016-11-16T03:25:57.022Z,0
2016-11-16T03:27:08.090Z,0
2016-11-16T03:28:19.328Z,0
2016-11-16T03:29:30.361Z,0
2016-11-16T03:30:41.395Z,0
2016-11-16T03:31:52.442Z,0
2016-11-16T03:33:03.724Z,0
2016-11-16T03:34:14.781Z,0
2016-11-16T03:35:25.804Z,0
2016-11-16T03:36:36.860Z,0
2016-11-16T03:37:47.899Z,0
2016-11-16T03:38:58.976Z,0
2016-11-16T03:40:09.999Z,0
2016-11-16T03:41:21.240Z,0
2016-11-16T03:42:32.285Z,0
2016-11-16T03:43:43.731Z,0
2016-11-16T03:44:54.814Z,0
2016-11-16T03:46:06.058Z,0
2016-11-16T03:47:17.289Z,0
2016-11-16T03:48:28.311Z,0
2016-11-16T03:49:39.336Z,0
2016-11-16T03:50:50.425Z,0
2016-11-16T03:52:01.658Z,0
2016-11-16T03:53:12.686Z,0
2016-11-16T03:54:23.714Z,0
2016-11-16T03:55:34.751Z,0
2016-11-16T03:56:45.838Z,0
2016-11-16T03:57:56.871Z,0
2016-11-16T03:59:07.907Z,0
2016-11-16T04:00:18.941Z,0
2016-11-16T04:01:29.984Z,0
2016-11-16T04:02:41.273Z,0
2016-11-16T04:03:52.324Z,0
2016-11-16T04:05:03.364Z,0
2016-11-16T04:06:14.409Z,0
2016-11-16T04:07:25.443Z,0
2016-11-16T04:08:36.723Z,0
2016-11-16T04:09:47.760Z,0
2016-11-16T04:10:58.797Z,0
2016-11-16T04:12:09.831Z,0
2016-11-16T04:13:21.064Z,0
2016-11-16T04:14:32.160Z,0
2016-11-16T04:15:43.186Z,0
2016-11-16T04:16:54.218Z,0
2016-11-16T04:18:05.244Z,0
2016-11-16T04:19:16.477Z,0
2016-11-16T04:20:27.776Z,0
2016-11-16T04:21:38.994Z,0
2016-11-16T04:22:50.020Z,0
2016-11-16T04:24:01.263Z,0
2016-11-16T04:25:12.294Z,0
2016-11-16T04:26:23.373Z,0
2016-11-16T04:27:34.397Z,0
2016-11-16T04:28:45.437Z,0
2016-11-16T04:29:56.485Z,0
2016-11-16T04:31:07.717Z,0
2016-11-16T04:32:18.812Z,0
2016-11-16T04:33:29.848Z,0
2016-11-16T04:34:41.106Z,0
2016-11-16T04:35:52.140Z,0
2016-11-16T04:37:03.162Z,0
2016-11-16T04:38:14.240Z,0
2016-11-16T04:39:25.473Z,0
2016-11-16T04:40:36.498Z,0
2016-11-16T04:41:47.524Z,0
2016-11-16T04:42:58.553Z,0
2016-11-16T04:44:09.631Z,0
2016-11-16T04:45:20.674Z,0
2016-11-16T04:46:31.706Z,0
2016-11-16T04:47:42.940Z,0
2016-11-16T04:48:53.976Z,0
2016-11-16T04:50:05.066Z,0
2016-11-16T04:51:16.126Z,0
2016-11-16T04:52:27.579Z,0
2016-11-16T04:53:38.626Z,0
2016-11-16T04:54:49.652Z,0
2016-11-16T04:56:00.744Z,0
2016-11-16T04:57:11.782Z,0
2016-11-16T04:58:22.815Z,0
2016-11-16T04:59:33.857Z,0
2016-11-16T05:00:45.089Z,0
2016-11-16T05:01:56.374Z,0
2016-11-16T05:03:07.413Z,0
2016-11-16T05:04:18.445Z,0
2016-11-16T05:05:29.469Z,0
2016-11-16T05:06:40.500Z,0
2016-11-16T05:07:51.780Z,0
2016-11-16T05:09:02.815Z,0
2016-11-16T05:10:13.839Z,0
2016-11-16T05:11:24.862Z,0
2016-11-16T05:12:35.890Z,0
2016-11-16T05:13:46.972Z,0
2016-11-16T05:14:58.011Z,0
2016-11-16T05:16:09.238Z,0
2016-11-16T05:17:20.278Z,0
2016-11-16T05:18:31.315Z,0
2016-11-16T05:19:42.428Z,0
2016-11-16T05:20:53.463Z,0
2016-11-16T05:22:04.500Z,0
2016-11-16T05:23:15.535Z,0
2016-11-16T05:24:26.575Z,0
2016-11-16T05:25:37.660Z,0
2016-11-16T05:26:48.693Z,0
2016-11-16T05:27:59.746Z,0
2016-11-16T05:29:10.796Z,0
2016-11-16T05:30:21.830Z,0
2016-11-16T05:31:32.925Z,0
2016-11-16T05:32:44.160Z,0
2016-11-16T05:33:55.182Z,0
2016-11-16T05:35:06.224Z,0
2016-11-16T05:36:17.258Z,0
2016-11-16T05:37:28.350Z,0
2016-11-16T05:38:39.412Z,0
2016-11-16T05:39:50.647Z,0
2016-11-16T05:41:01.927Z,0
2016-11-16T05:42:12.946Z,0
2016-11-16T05:43:24.026Z,0
2016-11-16T05:44:35.093Z,0
2016-11-16T05:45:46.116Z,0
2016-11-16T05:46:57.145Z,0
2016-11-16T05:48:08.379Z,0
2016-11-16T05:49:19.467Z,0
2016-11-16T05:50:30.763Z,0
2016-11-16T05:51:41.812Z,0
2016-11-16T05:52:52.840Z,0
2016-11-16T05:54:03.868Z,0
2016-11-16T05:55:14.951Z,0
2016-11-16T05:56:25.987Z,0
2016-11-16T05:57:37.018Z,0
2016-11-16T05:58:48.061Z,0
2016-11-16T05:59:59.293Z,0
2016-11-16T06:01:10.581Z,0
2016-11-16T06:02:21.622Z,0
2016-11-16T06:03:32.648Z,0
2016-11-16T06:04:43.886Z,0
2016-11-16T06:05:54.918Z,0
2016-11-16T06:07:06.005Z,0
2016-11-16T06:08:17.026Z,0
2016-11-16T06:09:28.073Z,0
2016-11-16T06:10:39.121Z,0
2016-11-16T06:11:50.153Z,0
2016-11-16T06:13:01.442Z,0
2016-11-16T06:14:12.469Z,0
2016-11-16T06:15:23.501Z,0
2016-11-16T06:16:34.536Z,0
2016-11-16T06:17:45.573Z,0
2016-11-16T06:18:56.684Z,0
2016-11-16T06:20:07.703Z,0
2016-11-16T06:21:18.741Z,0
2016-11-16T06:22:29.760Z,0
2016-11-16T06:23:40.988Z,0
2016-11-16T06:24:52.065Z,0
2016-11-16T06:26:03.113Z,0
2016-11-16T06:27:14.138Z,0
2016-11-16T06:28:25.153Z,0
2016-11-16T06:29:36.182Z,0
2016-11-16T06:30:47.270Z,0
2016-11-16T06:31:58.306Z,0
2016-11-16T06:33:09.341Z,0
2016-11-16T06:34:20.372Z,0
2016-11-16T06:35:31.605Z,0
2016-11-16T06:36:42.695Z,0
2016-11-16T06:37:53.730Z,0
2016-11-16T06:39:04.763Z,0
2016-11-16T06:40:15.795Z,0
2016-11-16T06:41:26.842Z,0
2016-11-16T06:42:37.925Z,0
2016-11-16T06:43:48.973Z,0
2016-11-16T06:45:00.006Z,0
2016-11-16T06:46:11.034Z,0
2016-11-16T06:47:22.069Z,0
2016-11-16T06:48:33.138Z,0
2016-11-16T06:49:44.378Z,0
2016-11-16T06:50:55.408Z,0
2016-11-16T06:52:06.442Z,0
2016-11-16T06:53:17.501Z,0
2016-11-16T06:54:28.597Z,0
2016-11-16T06:55:39.663Z,0
2016-11-16T06:56:50.674Z,0
2016-11-16T06:58:01.694Z,0
2016-11-16T06:59:12.722Z,0
2016-11-16T07:00:23.818Z,0
2016-11-16T07:01:34.850Z,0
2016-11-16T07:02:45.880Z,0
2016-11-16T07:03:56.910Z,0
2016-11-16T07:05:07.955Z,0
2016-11-16T07:06:19.058Z,5
2016-11-16T07:07:30.088Z,5
2016-11-16T07:08:41.124Z,5
2016-11-16T07:09:52.155Z,5
2016-11-16T07:11:03.186Z,5
2016-11-16T07:12:14.269Z,5
2016-11-16T07:13:25.397Z,5
2016-11-16T07:14:36.637Z,5
2016-11-16T07:15:47.875Z,5
2016-11-16T07:16:58.904Z,10
2016-11-16T07:18:10.025Z,10
2016-11-16T07:19:21.058Z,10
2016-11-16T07:20:32.112Z,10
2016-11-16T07:21:43.147Z,10
2016-11-16T07:22:54.382Z,10
2016-11-16T07:24:05.456Z,10
2016-11-16T07:25:16.679Z,10
2016-11-16T07:26:28.058Z,10
2016-11-16T07:27:39.108Z,10
2016-11-16T07:28:50.141Z,10
2016-11-16T07:30:01.431Z,10
2016-11-16T07:31:12.465Z,10
2016-11-16T07:32:23.503Z,10
2016-11-16T07:33:34.536Z,10
2016-11-16T07:34:45.776Z,10
2016-11-16T07:35:56.860Z,10
2016-11-16T07:37:07.883Z,10
2016-11-16T07:38:18.908Z,10
2016-11-16T07:39:30.149Z,10
2016-11-16T07:40:41.178Z,10
2016-11-16T07:41:52.267Z,10
2016-11-16T07:43:03.313Z,10
2016-11-16T07:44:14.349Z,10
2016-11-16T07:45:25.642Z,10
2016-11-16T07:46:36.670Z,10
2016-11-16T07:47:47.785Z,10
2016-11-16T07:48:58.814Z,10
2016-11-16T07:50:09.861Z,10
2016-11-16T07:51:20.895Z,10
2016-11-16T07:52:31.922Z,10
2016-11-16T07:53:43.003Z,10
2016-11-16T07:54:54.043Z,10
2016-11-16T07:56:05.073Z,10
2016-11-16T07:57:16.314Z,10
2016-11-16T07:58:27.538Z,15
2016-11-16T07:59:38.622Z,15
2016-11-16T08:00:49.644Z,15
2016-11-16T08:02:00.869Z,15
2016-11-16T08:03:11.907Z,15
2016-11-16T08:04:23.153Z,15
2016-11-16T08:05:34.234Z,15
2016-11-16T08:06:45.270Z,15
2016-11-16T08:07:56.303Z,20
2016-11-16T08:09:07.351Z,20
2016-11-16T08:10:18.619Z,20
2016-11-16T08:11:29.708Z,20
2016-11-16T08:12:40.740Z,20
2016-11-16T08:13:51.769Z,20
2016-11-16T08:15:02.808Z,20
2016-11-16T08:16:13.844Z,20
2016-11-16T08:17:24.922Z,20
2016-11-16T08:18:36.080Z,15
2016-11-16T08:19:47.112Z,20
2016-11-16T08:20:58.138Z,20
2016-11-16T08:22:09.163Z,20
2016-11-16T08:23:20.248Z,25
2016-11-16T08:24:31.279Z,25
2016-11-16T08:25:42.312Z,30
2016-11-16T08:26:53.360Z,30
2016-11-16T08:28:04.396Z,30
2016-11-16T08:29:15.470Z,30
2016-11-16T08:30:26.508Z,30
2016-11-16T08:31:37.556Z,30
2016-11-16T08:32:48.590Z,35
2016-11-16T08:33:59.626Z,35
2016-11-16T08:35:10.705Z,40
2016-11-16T08:36:21.753Z,40
2016-11-16T08:37:32.779Z,40
2016-11-16T08:38:43.818Z,35
2016-11-16T08:39:54.855Z,30
2016-11-16T08:41:05.943Z,25
2016-11-16T08:42:16.981Z,30
2016-11-16T08:43:28.008Z,30
2016-11-16T08:44:39.086Z,30
2016-11-16T08:45:50.121Z,25
2016-11-16T08:47:01.434Z,20
2016-11-16T08:48:12.705Z,25
2016-11-16T08:49:23.736Z,30
2016-11-16T08:50:34.805Z,30
2016-11-16T08:51:45.836Z,20
2016-11-16T08:52:56.654Z,25
2016-11-16T08:54:07.685Z,30
2016-11-16T08:55:18.723Z,35
2016-11-16T08:56:29.949Z,40
2016-11-16T08:57:41.167Z,40
2016-11-16T08:58:52.273Z,40
2016-11-16T09:00:03.529Z,40
2016-11-16T09:01:14.567Z,40
2016-11-16T09:02:25.598Z,35
2016-11-16T09:03:36.823Z,35
2016-11-16T09:04:48.096Z,40
2016-11-16T09:05:59.138Z,35
2016-11-16T09:07:10.373Z,30
2016-11-16T09:08:21.424Z,35
2016-11-16T09:09:32.457Z,30
2016-11-16T09:10:43.550Z,20
2016-11-16T09:11:54.573Z,25
2016-11-16T09:13:05.597Z,30
2016-11-16T09:14:16.622Z,25
2016-11-16T09:15:27.652Z,25
2016-11-16T09:16:38.723Z,20
2016-11-16T09:17:49.751Z,25
2016-11-16T09:19:00.793Z,30
2016-11-16T09:20:11.841Z,25
2016-11-16T09:21:22.883Z,30
2016-11-16T09:22:33.962Z,30
2016-11-16T09:23:44.987Z,30
2016-11-16T09:24:56.013Z,25
2016-11-16T09:26:07.046Z,25
2016-11-16T09:27:18.072Z,20
2016-11-16T09:28:29.210Z,20
2016-11-16T09:29:40.239Z,20
2016-11-16T09:30:51.319Z,25
2016-11-16T09:32:02.352Z,35
2016-11-16T09:33:13.428Z,35
2016-11-16T09:34:24.517Z,30
2016-11-16T09:35:35.756Z,25
2016-11-16T09:36:47.004Z,15
2016-11-16T09:37:58.049Z,20
2016-11-16T09:39:09.273Z,20
2016-11-16T09:40:20.356Z,20
2016-11-16T09:41:31.392Z,30
2016-11-16T09:42:42.429Z,35
2016-11-16T09:43:53.653Z,45
2016-11-16T09:45:04.691Z,45
2016-11-16T09:46:15.768Z,50
2016-11-16T09:47:26.796Z,55
2016-11-16T09:48:37.823Z,55
2016-11-16T09:49:48.858Z,60
2016-11-16T09:50:59.896Z,50
2016-11-16T09:52:10.980Z,45
2016-11-16T09:53:22.032Z,60
2016-11-16T09:54:33.055Z,50
2016-11-16T09:55:44.090Z,55
2016-11-16T09:56:55.111Z,60
2016-11-16T09:58:06.197Z,65
2016-11-16T09:59:17.229Z,60
2016-11-16T10:00:28.253Z,45
2016-11-16T10:01:39.285Z,55
2016-11-16T10:02:50.317Z,45
2016-11-16T10:04:01.430Z,45
2016-11-16T10:05:12.465Z,60
2016-11-16T10:06:23.495Z,70
2016-11-16T10:07:34.762Z,90
2016-11-16T10:08:45.804Z,105
2016-11-16T10:09:56.893Z,100
2016-11-16T10:11:07.913Z,105
2016-11-16T10:12:19.151Z,80
2016-11-16T10:13:30.194Z,75
2016-11-16T10:14:41.445Z,70
2016-11-16T10:15:52.516Z,60
2016-11-16T10:17:03.533Z,60
2016-11-16T10:18:14.577Z,70
2016-11-16T10:19:25.818Z,95
2016-11-16T10:20:36.846Z,100
2016-11-16T10:21:47.921Z,100
2016-11-16T10:22:58.955Z,90
2016-11-16T10:24:09.985Z,75
2016-11-16T10:25:21.024Z,90
2016-11-16T10:26:32.087Z,65
2016-11-16T10:27:43.161Z,70
2016-11-16T10:28:54.187Z,60
2016-11-16T10:30:05.240Z,55
2016-11-16T10:31:16.292Z,55
2016-11-16T10:32:27.339Z,65
2016-11-16T10:33:38.420Z,95
2016-11-16T10:34:49.449Z,100
2016-11-16T10:36:00.471Z,105
2016-11-16T10:37:11.495Z,110
2016-11-16T10:38:22.923Z,95
2016-11-16T10:39:34.013Z,95
2016-11-16T10:40:45.040Z,80
2016-11-16T10:41:56.059Z,60
2016-11-16T10:43:07.079Z,65
2016-11-16T10:44:18.324Z,60
2016-11-16T10:45:29.402Z,55
2016-11-16T10:46:40.455Z,55
2016-11-16T10:47:51.491Z,50
2016-11-16T10:49:02.528Z,45
2016-11-16T10:50:13.557Z,35
2016-11-16T10:51:24.647Z,40
2016-11-16T10:52:35.695Z,50
2016-11-16T10:53:46.724Z,55
2016-11-16T10:54:57.762Z,65
2016-11-16T10:56:08.806Z,55
2016-11-16T10:57:19.906Z,70
2016-11-16T10:58:31.129Z,60
2016-11-16T10:59:42.578Z,70
2016-11-16T11:00:53.848Z,45
2016-11-16T11:02:04.906Z,50
2016-11-16T11:03:15.995Z,50
2016-11-16T11:04:27.030Z,40
2016-11-16T11:05:38.043Z,45
2016-11-16T11:06:49.078Z,45
2016-11-16T11:08:00.124Z,45
2016-11-16T11:09:11.615Z,60
2016-11-16T11:10:22.654Z,60
2016-11-16T11:11:33.697Z,55
2016-11-16T11:12:44.736Z,65
2016-11-16T11:13:55.979Z,75
2016-11-16T11:15:07.096Z,55
2016-11-16T11:16:18.331Z,55
2016-11-16T11:17:29.368Z,60
2016-11-16T11:18:40.394Z,70
2016-11-16T11:19:51.465Z,75
2016-11-16T11:21:02.572Z,75
2016-11-16T11:22:13.654Z,80
2016-11-16T11:23:24.689Z,70
2016-11-16T11:24:35.959Z,85
2016-11-16T11:25:46.988Z,80
2016-11-16T11:26:58.278Z,80
2016-11-16T11:28:09.510Z,75
2016-11-16T11:29:20.740Z,70
2016-11-16T11:30:31.765Z,125
2016-11-16T11:31:42.813Z,135
2016-11-16T11:32:53.901Z,110
2016-11-16T11:34:04.965Z,120
2016-11-16T11:35:16.005Z,115
2016-11-16T11:36:27.044Z,105
2016-11-16T11:37:38.089Z,90
2016-11-16T11:38:49.177Z,95
2016-11-16T11:40:00.209Z,130
2016-11-16T11:41:11.248Z,130
2016-11-16T11:42:22.475Z,140
2016-11-16T11:43:33.500Z,120
2016-11-16T11:44:44.577Z,140
2016-11-16T11:45:55.612Z,170
2016-11-16T11:47:06.653Z,300
2016-11-16T11:48:17.722Z,305
2016-11-16T11:49:28.742Z,245
2016-11-16T11:50:39.822Z,225
2016-11-16T11:51:50.850Z,290
2016-11-16T11:53:01.879Z,255
2016-11-16T11:54:13.114Z,230
2016-11-16T11:55:24.139Z,195
2016-11-16T11:56:35.236Z,130
2016-11-16T11:57:46.278Z,105
2016-11-16T11:58:57.505Z,95
2016-11-16T12:00:08.530Z,130
2016-11-16T12:01:19.547Z,150
2016-11-16T12:02:30.642Z,160
2016-11-16T12:03:41.680Z,195
2016-11-16T12:04:52.768Z,150
2016-11-16T12:06:03.795Z,105
2016-11-16T12:07:14.828Z,135
2016-11-16T12:08:25.922Z,215
2016-11-16T12:09:36.963Z,230
2016-11-16T12:10:47.997Z,220
2016-11-16T12:11:59.031Z,215
2016-11-16T12:13:10.259Z,240
2016-11-16T12:14:21.340Z,230
2016-11-16T12:15:32.568Z,215
2016-11-16T12:16:43.607Z,145
2016-11-16T12:17:54.639Z,150
2016-11-16T12:19:05.671Z,150
2016-11-16T12:20:16.755Z,165
2016-11-16T12:21:27.805Z,230
2016-11-16T12:22:38.855Z,185
2016-11-16T12:23:49.881Z,215
2016-11-16T12:25:00.915Z,265
2016-11-16T12:26:11.989Z,240
2016-11-16T12:27:23.022Z,290
2016-11-16T12:28:34.067Z,300
2016-11-16T12:29:45.103Z,220
2016-11-16T12:30:56.140Z,195
2016-11-16T12:32:07.262Z,155
2016-11-16T12:33:18.519Z,130
2016-11-16T12:34:29.550Z,115
2016-11-16T12:35:40.784Z,120
2016-11-16T12:36:52.051Z,290
2016-11-16T12:38:03.333Z,395
2016-11-16T12:39:14.560Z,560
2016-11-16T12:40:25.592Z,325
2016-11-16T12:41:36.838Z,345
2016-11-16T12:42:48.179Z,325
2016-11-16T12:43:59.264Z,325
2016-11-16T12:45:10.759Z,335
2016-11-16T12:46:21.789Z,385
2016-11-16T12:47:32.813Z,325
2016-11-16T12:48:44.045Z,295
2016-11-16T12:49:55.316Z,300
2016-11-16T12:51:06.570Z,265
2016-11-16T12:52:17.800Z,230
2016-11-16T12:53:28.829Z,235
2016-11-16T12:54:39.884Z,270
2016-11-16T12:55:50.981Z,280
2016-11-16T12:57:02.013Z,270
2016-11-16T12:58:13.043Z,305
2016-11-16T12:59:24.482Z,375
2016-11-16T13:00:35.525Z,425
2016-11-16T13:01:46.610Z,345
2016-11-16T13:02:57.639Z,260
2016-11-16T13:04:08.672Z,275
2016-11-16T13:05:19.699Z,280
2016-11-16T13:06:30.737Z,230
2016-11-16T13:07:41.836Z,215
2016-11-16T13:08:53.081Z,280
2016-11-16T13:10:04.127Z,340
2016-11-16T13:11:15.361Z,350
2016-11-16T13:12:26.390Z,320
2016-11-16T13:13:37.676Z,275
2016-11-16T13:14:48.908Z,275
2016-11-16T13:15:59.947Z,275
2016-11-16T13:17:11.180Z,235
2016-11-16T13:18:22.417Z,175
2016-11-16T13:19:33.487Z,140
2016-11-16T13:20:44.735Z,160
2016-11-16T13:21:55.778Z,105
2016-11-16T13:23:06.812Z,75
2016-11-16T13:24:17.837Z,110
2016-11-16T13:25:28.923Z,140
2016-11-16T13:26:40.162Z,170
2016-11-16T13:27:51.397Z,175
2016-11-16T13:29:02.435Z,160
2016-11-16T13:30:13.692Z,135
2016-11-16T13:31:24.976Z,125
2016-11-16T13:32:36.008Z,110
2016-11-16T13:33:47.041Z,135
2016-11-16T13:34:58.080Z,185
2016-11-16T13:36:09.121Z,175
2016-11-16T13:37:20.141Z,125
2016-11-16T13:38:31.179Z,80
2016-11-16T13:39:42.216Z,65
2016-11-16T13:40:53.760Z,60
2016-11-16T13:42:04.843Z,50
2016-11-16T13:43:15.886Z,45
2016-11-16T13:44:26.911Z,55
2016-11-16T13:45:37.942Z,75
2016-11-16T13:46:48.973Z,75
2016-11-16T13:47:59.995Z,70
2016-11-16T13:49:11.282Z,60
2016-11-16T13:50:22.318Z,65
2016-11-16T13:51:33.352Z,50
2016-11-16T13:52:44.836Z,25
2016-11-16T13:53:56.086Z,15
2016-11-16T13:55:07.138Z,15
2016-11-16T13:56:18.185Z,20
2016-11-16T13:57:29.218Z,25
2016-11-16T13:58:40.510Z,25
2016-11-16T13:59:51.540Z,35
2016-11-16T14:01:02.562Z,45
2016-11-16T14:02:13.587Z,40
2016-11-16T14:03:24.625Z,40
2016-11-16T14:04:35.694Z,55
2016-11-16T14:05:46.735Z,65
2016-11-16T14:06:57.754Z,50
2016-11-16T14:08:08.784Z,50
2016-11-16T14:09:20.010Z,55
2016-11-16T14:10:31.094Z,50
2016-11-16T14:11:42.136Z,40
2016-11-16T14:12:53.151Z,40
2016-11-16T14:14:04.193Z,50
2016-11-16T14:15:15.226Z,65
2016-11-16T14:16:26.305Z,50
2016-11-16T14:17:37.555Z,50
2016-11-16T14:18:48.594Z,45
2016-11-16T14:19:59.835Z,45
2016-11-16T14:21:10.865Z,50
2016-11-16T14:22:21.951Z,50
2016-11-16T14:23:32.990Z,55
2016-11-16T14:24:44.030Z,55
2016-11-16T14:25:55.072Z,60
2016-11-16T14:27:06.101Z,55
2016-11-16T14:28:17.189Z,55
2016-11-16T14:29:28.417Z,55
2016-11-16T14:30:39.487Z,55
2016-11-16T14:31:50.527Z,50
2016-11-16T14:33:01.560Z,50
2016-11-16T14:34:12.709Z,60
2016-11-16T14:35:23.745Z,65
2016-11-16T14:36:34.769Z,70
2016-11-16T14:37:45.797Z,70
2016-11-16T14:38:56.818Z,70
2016-11-16T14:40:07.899Z,70
2016-11-16T14:41:19.134Z,70
2016-11-16T14:42:30.172Z,70
2016-11-16T14:43:41.257Z,70
2016-11-16T14:44:52.285Z,65
2016-11-16T14:46:03.370Z,70
2016-11-16T14:47:14.399Z,65
2016-11-16T14:48:25.653Z,65
2016-11-16T14:49:36.960Z,65
2016-11-16T14:50:47.987Z,65
2016-11-16T14:51:59.071Z,60
2016-11-16T14:53:10.332Z,55
2016-11-16T14:54:21.367Z,55
2016-11-16T14:55:32.401Z,50
2016-11-16T14:56:43.446Z,50
2016-11-16T14:57:54.533Z,50
2016-11-16T14:59:05.567Z,50
2016-11-16T15:00:16.995Z,50
2016-11-16T15:01:28.016Z,50
2016-11-16T15:02:39.052Z,45
2016-11-16T15:03:50.128Z,45
2016-11-16T15:05:01.163Z,40
2016-11-16T15:06:12.207Z,35
2016-11-16T15:07:23.242Z,35
2016-11-16T15:08:34.281Z,30
2016-11-16T15:09:45.365Z,30
2016-11-16T15:10:56.395Z,25
2016-11-16T15:12:07.430Z,25
2016-11-16T15:13:18.468Z,20
2016-11-16T15:14:29.896Z,20
2016-11-16T15:15:40.984Z,15
2016-11-16T15:16:52.211Z,15
2016-11-16T15:18:03.253Z,15
2016-11-16T15:19:14.301Z,15
2016-11-16T15:20:25.340Z,15
2016-11-16T15:21:36.637Z,15
2016-11-16T15:22:47.673Z,15
2016-11-16T15:23:58.707Z,10
2016-11-16T15:25:09.967Z,10
2016-11-16T15:26:21.001Z,10
2016-11-16T15:27:32.121Z,10
2016-11-16T15:28:43.360Z,5
2016-11-16T15:29:54.395Z,5
2016-11-16T15:31:05.428Z,5
2016-11-16T15:32:16.473Z,5
2016-11-16T15:33:27.554Z,5
2016-11-16T15:34:38.594Z,5
2016-11-16T15:35:49.618Z,5
2016-11-16T15:37:00.657Z,5
2016-11-16T15:38:11.698Z,5
2016-11-16T15:39:23.006Z,0
2016-11-16T15:40:34.035Z,0
2016-11-16T15:41:45.060Z,0
2016-11-16T15:42:56.089Z,0
2016-11-16T15:44:07.315Z,0
2016-11-16T15:45:18.440Z,0
2016-11-16T15:46:29.453Z,0
2016-11-16T15:47:40.481Z,0
2016-11-16T15:48:51.716Z,0
2016-11-16T15:50:02.738Z,0
2016-11-16T15:51:13.812Z,0
2016-11-16T15:52:25.048Z,0
2016-11-16T15:53:36.074Z,0
2016-11-16T15:54:47.122Z,0
2016-11-16T15:55:58.153Z,0
2016-11-16T15:57:09.254Z,0
2016-11-16T15:58:20.274Z,0
2016-11-16T15:59:31.509Z,0
2016-11-16T16:00:42.540Z,0
2016-11-16T16:01:53.571Z,0
2016-11-16T16:03:04.656Z,0
2016-11-16T16:04:15.695Z,0
2016-11-16T16:05:26.721Z,0
2016-11-16T16:06:37.756Z,0
2016-11-16T16:07:48.795Z,0
2016-11-16T16:08:59.909Z,0
2016-11-16T16:10:11.176Z,0
2016-11-16T16:11:22.411Z,0
2016-11-16T16:12:33.444Z,0
2016-11-16T16:13:44.484Z,0
2016-11-16T16:14:55.769Z,0
2016-11-16T16:16:06.791Z,0
2016-11-16T16:17:17.845Z,0
2016-11-16T16:18:28.885Z,0
2016-11-16T16:19:39.899Z,0
2016-11-16T16:20:50.979Z,0
2016-11-16T16:22:02.007Z,0
2016-11-16T16:23:13.040Z,0
2016-11-16T16:24:24.272Z,0
2016-11-16T16:25:35.310Z,0
2016-11-16T16:26:46.406Z,0
2016-11-16T16:27:57.444Z,0
2016-11-16T16:29:08.684Z,0
2016-11-16T16:30:19.758Z,0
2016-11-16T16:31:30.990Z,0
2016-11-16T16:32:42.065Z,0
2016-11-16T16:33:53.103Z,0
2016-11-16T16:35:04.142Z,0
2016-11-16T16:36:15.385Z,0
2016-11-16T16:37:26.431Z,0
2016-11-16T16:38:37.499Z,0
2016-11-16T16:39:48.524Z,0
2016-11-16T16:40:59.763Z,0
2016-11-16T16:42:10.842Z,0
2016-11-16T16:43:21.881Z,0
2016-11-16T16:44:32.969Z,0
2016-11-16T16:45:44.006Z,0
2016-11-16T16:46:55.042Z,0
2016-11-16T16:48:06.074Z,0
2016-11-16T16:49:17.143Z,0
2016-11-16T16:50:28.220Z,0
2016-11-16T16:51:39.260Z,0
2016-11-16T16:52:50.291Z,0
2016-11-16T16:54:01.310Z,0
2016-11-16T16:55:12.335Z,0
2016-11-16T16:56:23.395Z,0
2016-11-16T16:57:34.636Z,0
2016-11-16T16:58:45.655Z,0
2016-11-16T16:59:56.910Z,0
2016-11-16T17:01:07.991Z,0
2016-11-16T17:02:19.023Z,0
2016-11-16T17:03:30.040Z,0
2016-11-16T17:04:41.075Z,0
2016-11-16T17:05:52.098Z,0
2016-11-16T17:07:03.117Z,0
2016-11-16T17:08:14.147Z,0